Home > Products > Valid Products > TAF

000
FTUS43 KLOT 242300
TAFGYY
TAF
KGYY 242330Z 2500/2524 15017G27KT P6SM -SHRA BKN060
     FM250200 14012G18KT 6SM -SHRA SCT025 OVC050
     FM250600 08007KT 5SM -SHRA SCT007 OVC015
     FM251000 34010KT P6SM BKN020
     FM251300 33012G17KT P6SM SCT040
     FM251600 30015G23KT P6SM FEW250=



000
FTUS43 KLOT 242300
TAFRFD
TAF
KRFD 242330Z 2500/2524 15010KT 6SM -RA SCT035 OVC060
     FM250130 14009KT 6SM -SHRA SCT014 OVC040
     FM250330 10006KT 5SM -SHRA SCT007 OVC014
     FM250700 33012KT P6SM FEW250
     FM251300 33012G17KT P6SM SCT040
     FM251600 30016G24KT P6SM FEW250=



000
FTUS43 KLOT 242300
TAFMDW
TAF
KMDW 242330Z 2500/2524 15015G22KT P6SM -SHRA OVC060
     FM250200 14011KT 6SM -SHRA SCT025 OVC050
     FM250500 08007KT 5SM -SHRA SCT007 OVC015
     FM250900 34010KT P6SM BKN020
     FM251300 33012G17KT P6SM SCT040
     FM251600 30015G23KT P6SM FEW250=



000
FTUS43 KLOT 242300
TAFDPA
TAF
KDPA 242330Z 2500/2524 15014G22KT P6SM -SHRA OVC060
     FM250200 14011KT 6SM -SHRA SCT025 OVC050
     FM250500 08007KT 5SM -SHRA SCT007 OVC015
     FM250900 34010KT P6SM BKN020
     FM251300 33012G17KT P6SM SCT040
     FM251600 30015G23KT P6SM FEW250=



000
FTUS43 KLOT 242300
TAFORD
TAF
KORD 242330Z 2500/2606 15015G22KT P6SM -SHRA OVC060
     FM250200 14011KT 6SM -SHRA SCT025 OVC050
     FM250500 08007KT 5SM -SHRA SCT007 OVC015
     FM250900 34010KT P6SM BKN020
     FM251300 33012G17KT P6SM SCT040
     FM251600 30015G23KT P6SM FEW250
     FM260100 27010KT P6SM BKN100=



000
FTUS43 KLOT 242200 AAB
TAFMDW
TAF AMD
KMDW 242200Z 2422/2518 15018G27KT P6SM SCT060 OVC150
     FM250000 14013G20KT P6SM VCSH BKN060
     FM250200 14011KT P6SM VCSH BKN060
     FM250400 08007KT 5SM -SHRA SCT007 OVC015
     FM250900 34010KT P6SM BKN020
     FM251300 33010G17KT P6SM SCT040=



000
FTUS43 KLOT 242200 AAB
TAFDPA
TAF AMD
KDPA 242200Z 2422/2518 15018G27KT P6SM SCT060 OVC150
     FM250000 14013G20KT P6SM VCSH BKN060
     FM250200 14011KT P6SM VCSH BKN060
     FM250400 08007KT 5SM -SHRA SCT007 OVC015
     FM250900 34010KT P6SM BKN020
     FM251300 33010G17KT P6SM SCT040=



000
FTUS43 KLOT 242200 AAB
TAFGYY
TAF AMD
KGYY 242200Z 2422/2518 15018G27KT P6SM SCT060 OVC150
     FM250000 14013G20KT P6SM BKN060
     FM250300 14011KT P6SM VCSH BKN060
     FM250500 08007KT 5SM -SHRA SCT007 OVC015
     FM251000 34010KT P6SM BKN020
     FM251300 33010G17KT P6SM SCT040=



000
FTUS43 KLOT 242200 AAC
TAFRFD
TAF AMD
KRFD 242200Z 2422/2518 15012G18KT P6SM -RA SCT035 OVC060
     FM250100 14009KT 6SM -SHRA SCT014 OVC040
     FM250300 10006KT 5SM -SHRA SCT007 OVC014
     FM250700 33012KT P6SM FEW250
     FM251600 29014G20KT P6SM FEW250=



000
FTUS43 KLOT 242200 AAB
TAFORD
TAF AMD
KORD 242200Z 2422/2524 15018G27KT P6SM SCT060 OVC150
     FM250000 14013G20KT P6SM VCSH BKN060
     FM250200 14011KT P6SM VCSH BKN060
     FM250400 08007KT 5SM -SHRA SCT007 OVC015
     FM250900 34010KT P6SM BKN020
     FM251300 33010G17KT P6SM SCT040
     FM251800 30015G23KT P6SM FEW250=



000
FTUS43 KLOT 241900 AAA
TAFMDW
TAF AMD
KMDW 241955Z 2420/2518 15018G27KT P6SM BKN120
     FM250000 14013G20KT P6SM VCSH BKN060
     FM250200 14011KT P6SM VCSH BKN060
     FM250400 08007KT 5SM -SHRA SCT007 OVC015
     FM250900 34010KT P6SM BKN020
     FM251300 33010G17KT P6SM SCT040=



000
FTUS43 KLOT 241900 AAA
TAFGYY
TAF AMD
KGYY 241955Z 2420/2518 15018G27KT P6SM BKN120
     FM250000 14013G20KT P6SM VCSH BKN060
     FM250300 14011KT P6SM VCSH BKN060
     FM250500 08007KT 5SM -SHRA SCT007 OVC015
     FM251000 34010KT P6SM BKN020
     FM251300 33010G17KT P6SM SCT040=



000
FTUS43 KLOT 241900 AAA
TAFDPA
TAF AMD
KDPA 241955Z 2420/2518 15018G27KT P6SM BKN120
     FM250000 14013G20KT P6SM VCSH BKN060
     FM250200 14011KT P6SM VCSH BKN060
     FM250400 08007KT 5SM -SHRA SCT007 OVC015
     FM250900 34010KT P6SM BKN020
     FM251300 33010G17KT P6SM SCT040=



000
FTUS43 KLOT 241900 AAA
TAFORD
TAF AMD
KORD 241955Z 2420/2524 15018G27KT P6SM BKN120
     FM250000 14013G20KT P6SM VCSH BKN060
     FM250200 14011KT P6SM VCSH BKN060
     FM250400 08007KT 5SM -SHRA SCT007 OVC015
     FM250900 34010KT P6SM BKN020
     FM251300 33010G17KT P6SM SCT040
     FM251800 30015G23KT P6SM FEW250=



000
FTUS43 KLOT 241900 AAB
TAFRFD
TAF AMD
KRFD 241955Z 2420/2518 15021G31KT P6SM VCSH SCT050 BKN080
      TEMPO 2420/2421 5SM -SHRA BKN050
     FM242300 15015G23KT P6SM BKN060
     FM250100 14009KT 6SM -SHRA SCT014 OVC040
     FM250300 10006KT 5SM -SHRA SCT007 OVC014
     FM250700 33012KT P6SM FEW250
     FM251600 29014G20KT P6SM FEW250=



000
FTUS43 KLOT 241800 AAA
TAFRFD
TAF AMD
KRFD 241819Z 2418/2518 15021G31KT P6SM VCSH SCT050 BKN080
      TEMPO 2419/2421 5SM -TSRA BKN050CB
     FM242300 15015G23KT P6SM BKN060
     FM250100 14009KT 6SM -SHRA SCT014 OVC040
     FM250300 10006KT 5SM -SHRA SCT007 OVC014
     FM250700 33012KT P6SM FEW250
     FM251600 29014G20KT P6SM FEW250=



000
FTUS43 KLOT 241700
TAFGYY
TAF
KGYY 241734Z 2418/2518 15018G27KT P6SM BKN120
     FM250300 14011KT P6SM VCSH BKN060
     FM250500 08007KT 5SM -SHRA SCT007 OVC015
     FM251000 34010KT P6SM BKN020
     FM251300 33010G17KT P6SM SCT040=



000
FTUS43 KLOT 241700
TAFRFD
TAF
KRFD 241734Z 2418/2518 15021G31KT P6SM VCSH SCT050 BKN080
      TEMPO 2420/2422 6SM -SHRA BKN050
     FM242300 15015G23KT P6SM BKN060
     FM250100 14009KT 6SM -SHRA SCT014 OVC040
     FM250300 10006KT 5SM -SHRA SCT007 OVC014
     FM250700 33012KT P6SM FEW250
     FM251600 29014G20KT P6SM FEW250=



000
FTUS43 KLOT 241700
TAFORD
TAF
KORD 241734Z 2418/2524 15018G27KT P6SM BKN120
     FM250300 14011KT P6SM VCSH BKN060
     FM250500 08007KT 5SM -SHRA SCT007 OVC015
     FM250900 34010KT P6SM BKN020
     FM251300 33010G17KT P6SM SCT040
     FM251800 30015G23KT P6SM FEW250=



000
FTUS43 KLOT 241700
TAFMDW
TAF
KMDW 241734Z 2418/2518 15018G27KT P6SM BKN120
     FM250300 14011KT P6SM VCSH BKN060
     FM250500 08007KT 5SM -SHRA SCT007 OVC015
     FM250900 34010KT P6SM BKN020
     FM251300 33010G17KT P6SM SCT040=



000
FTUS43 KLOT 241700
TAFDPA
TAF
KDPA 241734Z 2418/2518 15018G27KT P6SM BKN120
     FM250300 14011KT P6SM VCSH BKN060
     FM250500 08007KT 5SM -SHRA SCT007 OVC015
     FM250900 34010KT P6SM BKN020
     FM251300 33010G17KT P6SM SCT040=



000
FTUS43 KLOT 241600 AAB
TAFORD
TAF AMD
KORD 241610Z 2416/2518 13016G22KT P6SM SCT120 BKN200
     FM241700 15020G28KT P6SM SCT050 BKN150
     FM242300 15015G23KT P6SM BKN060
     FM250500 16009KT 6SM -SHRA SCT007 BKN014 OVC040
     FM251000 33012G18KT P6SM FEW250=



000
FTUS43 KLOT 241600 AAB
TAFGYY
TAF AMD
KGYY 241610Z 2416/2512 13015G22KT P6SM SCT120 BKN200
     FM241700 14020G28KT P6SM SCT050 BKN150
     FM242300 15015G23KT P6SM BKN060
     FM250500 16009KT 6SM -SHRA SCT007 BKN014 OVC040
     FM251000 33012G18KT P6SM FEW250=



000
FTUS43 KLOT 241600 AAB
TAFRFD
TAF AMD
KRFD 241610Z 2416/2512 15021G31KT P6SM SCT050 BKN150
     FM242300 15015G23KT P6SM BKN060
     FM250300 16009KT 6SM -SHRA SCT007 BKN014 OVC040
     FM250800 33012G18KT P6SM FEW250=



000
FTUS43 KLOT 241600 AAB
TAFMDW
TAF AMD
KMDW 241610Z 2416/2512 13016G22KT P6SM SCT120 BKN200
     FM241700 15020G28KT P6SM SCT050 BKN150
     FM242300 15015G23KT P6SM BKN060
     FM250500 16009KT 6SM -SHRA SCT007 BKN014 OVC040
     FM251000 33012G18KT P6SM FEW250=



000
FTUS43 KLOT 241600 AAC
TAFDPA
TAF AMD
KDPA 241610Z 2416/2512 15016G22KT P6SM SCT120 BKN200
     FM241700 14020G28KT P6SM SCT050 BKN150
     FM242300 15015G23KT P6SM BKN060
     FM250500 16009KT 6SM -SHRA SCT007 BKN014 OVC040
     FM251000 33012G18KT P6SM FEW250=



000
FTUS43 KLOT 241500 AAB
TAFDPA
TAF AMD
KDPA 241505Z 2415/2512 15016G22KT P6SM SCT120 BKN200
     FM241700 14020G28KT P6SM SCT050 BKN150
     FM242300 15015G23KT P6SM BKN060
     FM250500 16009KT 6SM -SHRA SCT007 BKN014 OVC040
     FM251000 33012G18KT P6SM FEW250=



000
FTUS43 KLOT 241400 AAA
TAFDPA
TAF AMD
KDPA 241400Z 2414/2512 12016G22KT P6SM SCT120 BKN200
     FM241700 14020G28KT P6SM SCT050 BKN150
     FM242300 15015G23KT P6SM BKN060
     FM250500 16009KT 6SM -SHRA SCT007 BKN014 OVC040
     FM251000 33012G18KT P6SM FEW250=



000
FTUS43 KLOT 241400 AAA
TAFGYY
TAF AMD
KGYY 241400Z 2414/2512 13015G22KT P6SM SCT120 BKN200
     FM241700 14020G28KT P6SM SCT050 BKN150
     FM242300 15015G23KT P6SM BKN060
     FM250500 16009KT 6SM -SHRA SCT007 BKN014 OVC040
     FM251000 33012G18KT P6SM FEW250=



000
FTUS43 KLOT 241400 AAA
TAFRFD
TAF AMD
KRFD 241400Z 2414/2512 12016G24KT P6SM SCT120 BKN200
     FM241500 15021G31KT P6SM SCT050 BKN150
     FM242300 15015G23KT P6SM BKN060
     FM250300 16009KT 6SM -SHRA SCT007 BKN014 OVC040
     FM250800 33012G18KT P6SM FEW250=



000
FTUS43 KLOT 241400 AAA
TAFMDW
TAF AMD
KMDW 241400Z 2414/2512 13016G22KT P6SM SCT120 BKN200
     FM241700 15020G28KT P6SM SCT050 BKN150
     FM242300 15015G23KT P6SM BKN060
     FM250500 16009KT 6SM -SHRA SCT007 BKN014 OVC040
     FM251000 33012G18KT P6SM FEW250=



000
FTUS43 KLOT 241400 AAA
TAFORD
TAF AMD
KORD 241400Z 2414/2518 13016G22KT P6SM SCT120 BKN200
     FM241700 15020G28KT P6SM SCT050 BKN150
     FM242300 15015G23KT P6SM BKN060
     FM250500 16009KT 6SM -SHRA SCT007 BKN014 OVC040
     FM251000 33012G18KT P6SM FEW250=



000
FTUS43 KLOT 241100
TAFRFD
TAF
KRFD 241134Z 2412/2512 10013G18KT P6SM SCT120 OVC200
     FM241300 12016G24KT P6SM SCT120 BKN200
     FM241500 15021G31KT P6SM SCT050 BKN150
     FM242300 15015G23KT P6SM BKN060
     FM250300 16009KT 6SM -SHRA SCT007 BKN014 OVC040
     FM250800 33012G18KT P6SM FEW250=



000
FTUS43 KLOT 241100
TAFORD
TAF
KORD 241134Z 2412/2518 10010KT P6SM SCT050 BKN120
     FM241400 13016G24KT P6SM SCT120 BKN200
     FM241700 15020G28KT P6SM SCT050 BKN150
     FM242300 15015G23KT P6SM BKN060
     FM250500 16009KT 6SM -SHRA SCT007 BKN014 OVC040
     FM251000 33012G18KT P6SM FEW250=



000
FTUS43 KLOT 241100
TAFDPA
TAF
KDPA 241134Z 2412/2512 10010KT P6SM SCT050 BKN120
     FM241400 12016G24KT P6SM SCT120 BKN200
     FM241700 14020G28KT P6SM SCT050 BKN150
     FM242300 15015G23KT P6SM BKN060
     FM250500 16009KT 6SM -SHRA SCT007 BKN014 OVC040
     FM251000 33012G18KT P6SM FEW250=



000
FTUS43 KLOT 241100
TAFGYY
TAF
KGYY 241134Z 2412/2512 08010KT P6SM SCT060 BKN120
     FM241400 12015G23KT P6SM SCT120 BKN200
     FM241700 14020G28KT P6SM SCT050 BKN150
     FM242300 15015G23KT P6SM BKN060
     FM250500 16009KT 6SM -SHRA SCT007 BKN014 OVC040
     FM251000 33012G18KT P6SM FEW250=



000
FTUS43 KLOT 241100
TAFMDW
TAF
KMDW 241134Z 2412/2512 10010KT P6SM SCT060 BKN120
     FM241400 13016G24KT P6SM SCT120 BKN200
     FM241700 15020G28KT P6SM SCT050 BKN150
     FM242300 15015G23KT P6SM BKN060
     FM250500 16009KT 6SM -SHRA SCT007 BKN014 OVC040
     FM251000 33012G18KT P6SM FEW250=



000
FTUS43 KLOT 240900 AAA
TAFORD
TAF AMD
KORD 240905Z 2409/2512 05007KT P6SM VCSH SCT040 OVC050
     FM241000 09010KT P6SM BKN080
     FM241400 14016G24KT P6SM BKN200
     FM241700 15020G30KT P6SM SCT050 BKN150
     FM242200 16015G24KT P6SM VCSH BKN050
     FM250100 17009KT 6SM -SHRA SCT020 OVC040=



000
FTUS43 KLOT 240900 AAA
TAFGYY
TAF AMD
KGYY 240905Z 2409/2506 05007KT P6SM VCSH SCT050 OVC060
     FM241000 08010KT P6SM BKN080
     FM241400 13015G23KT P6SM BKN200
     FM241700 14020G30KT P6SM SCT050 BKN150
     FM242200 15015G24KT P6SM BKN050
     FM250100 16009KT 6SM -SHRA SCT020 OVC040=



000
FTUS43 KLOT 240900 AAA
TAFDPA
TAF AMD
KDPA 240905Z 2409/2506 09010KT P6SM BKN090
     FM241400 12016G24KT P6SM BKN200
     FM241600 14020G30KT P6SM SCT050 BKN150
     FM242200 16015G24KT P6SM VCSH BKN050
     FM250100 16009KT 6SM -SHRA SCT020 OVC040=



000
FTUS43 KLOT 240900 AAA
TAFMDW
TAF AMD
KMDW 240905Z 2409/2506 05007KT P6SM VCSH SCT040 OVC060
     FM241000 09010KT P6SM BKN080
     FM241400 14016G24KT P6SM BKN200
     FM241700 15020G30KT P6SM SCT050 BKN150
     FM242200 16015G24KT P6SM VCSH BKN050
     FM250100 17009KT 6SM -SHRA SCT020 OVC040=



000
FTUS43 KLOT 240900 AAA
TAFRFD
TAF AMD
KRFD 240905Z 2409/2506 11012KT P6SM BKN090
     FM241300 12016G22KT P6SM SCT120 BKN200
     FM241500 15024G32KT P6SM BKN050
     FM242100 17016G24KT 5SM -SHRA SCT025 OVC040=



000
FTUS43 KLOT 240500
TAFORD
TAF
KORD 240535Z 2406/2512 08007KT P6SM VCSH SCT040 OVC070
      TEMPO 2406/2408 -RA
     FM241000 11010KT P6SM BKN090
     FM241400 14016G24KT P6SM BKN200
     FM241700 15020G30KT P6SM SCT050 BKN150
     FM242200 16015G24KT P6SM VCSH BKN050
     FM250100 17009KT 6SM -SHRA SCT020 OVC040=



000
FTUS43 KLOT 240500
TAFRFD
TAF
KRFD 240535Z 2406/2506 09009KT P6SM VCSH FEW040 OVC070
      TEMPO 2406/2408 -RA
     FM240900 11010KT P6SM BKN070
     FM241300 12016G22KT P6SM BKN200
     FM241500 15024G32KT P6SM BKN050
     FM242100 17016G24KT 5SM -SHRA SCT025 OVC040=



000
FTUS43 KLOT 240500
TAFDPA
TAF
KDPA 240535Z 2406/2506 08007KT P6SM VCSH SCT040 OVC070
      TEMPO 2406/2408 -RA
     FM240900 11010KT P6SM BKN090
     FM241400 13016G24KT P6SM BKN200
     FM241600 14020G30KT P6SM SCT050 BKN150
     FM242200 16015G24KT P6SM VCSH BKN050
     FM250100 16009KT 6SM -SHRA SCT020 OVC040=



000
FTUS43 KLOT 240500
TAFMDW
TAF
KMDW 240535Z 2406/2506 09007KT P6SM VCSH SCT040 OVC070
      TEMPO 2406/2408 -RA
     FM241000 11010KT P6SM BKN090
     FM241400 14016G24KT P6SM BKN200
     FM241700 15020G30KT P6SM SCT050 BKN150
     FM242200 16015G24KT P6SM VCSH BKN050
     FM250100 17009KT 6SM -SHRA SCT020 OVC040=



000
FTUS43 KLOT 240500
TAFGYY
TAF
KGYY 240535Z 2406/2506 09007KT P6SM VCSH SCT050 OVC080
      TEMPO 2406/2408 -RA
     FM241000 10010KT P6SM BKN090
     FM241400 14015G23KT P6SM BKN200
     FM241700 15020G30KT P6SM SCT050 BKN150
     FM242200 15015G24KT P6SM BKN050
     FM250100 16009KT 6SM -SHRA SCT020 OVC040=



000
FTUS43 KLOT 240300 AAA
TAFGYY
TAF AMD
KGYY 240300Z 2403/2424 08009KT P6SM VCSH SCT050 OVC080
     FM240900 10010KT P6SM BKN090
     FM241400 14015G23KT P6SM BKN200
     FM241700 15020G30KT P6SM SCT050 BKN150
     FM242200 17015G24KT P6SM BKN050=



000
FTUS43 KLOT 240300 AAA
TAFRFD
TAF AMD
KRFD 240300Z 2403/2424 10011KT 6SM -RA SCT040 OVC070
     FM240430 11011KT P6SM VCSH FEW040 OVC070
     FM240700 11010KT P6SM BKN070
     FM241300 12015G21KT P6SM BKN200
     FM241500 15024G32KT P6SM BKN050
     FM242000 18016G24KT 5SM -SHRA SCT025 OVC040=



000
FTUS43 KLOT 240300 AAA
TAFORD
TAF AMD
KORD 240300Z 2403/2506 08011KT P6SM VCSH SCT040 OVC070
      TEMPO 2405/2407 -RA
     FM240900 11010KT P6SM BKN090
     FM241400 14016G24KT P6SM BKN200
     FM241700 15020G30KT P6SM SCT050 BKN150
     FM242200 17015G24KT P6SM VCSH BKN050
     FM250100 18009KT 6SM -SHRA SCT020 OVC040=



000
FTUS43 KLOT 240300 AAA
TAFDPA
TAF AMD
KDPA 240300Z 2403/2424 09011KT P6SM VCSH SCT040 OVC070
      TEMPO 2404/2406 -RA
     FM240800 11010KT P6SM BKN090
     FM241400 13016G24KT P6SM BKN200
     FM241600 14020G30KT P6SM SCT050 BKN150
     FM242200 16015G24KT P6SM VCSH BKN050=



000
FTUS43 KLOT 240300 AAA
TAFMDW
TAF AMD
KMDW 240300Z 2403/2424 09011KT P6SM VCSH SCT040 OVC070
     FM240900 11010KT P6SM BKN090
     FM241400 14016G24KT P6SM BKN200
     FM241700 15020G30KT P6SM SCT050 BKN150
     FM242200 17015G24KT P6SM VCSH BKN050=



000
FTUS43 KLOT 232300
TAFMDW
TAF
KMDW 232330Z 2400/2424 07008KT P6SM SCT120 OVC250
     FM240400 09005KT P6SM VCSH SCT040 OVC070
     FM240900 11009KT P6SM BKN090
     FM241400 14016G24KT P6SM BKN200
     FM241700 15020G30KT P6SM SCT050 BKN150
     FM242200 17015G24KT P6SM VCSH BKN050=



000
FTUS43 KLOT 232300
TAFORD
TAF
KORD 232330Z 2400/2506 07008KT P6SM SCT120 OVC250
     FM240400 09005KT P6SM VCSH SCT040 OVC070
     FM240900 11009KT P6SM BKN090
     FM241400 14016G24KT P6SM BKN200
     FM241700 15020G30KT P6SM SCT050 BKN150
     FM242200 17015G24KT P6SM VCSH BKN050
     FM250100 18009KT 6SM -SHRA SCT020 OVC040=



000
FTUS43 KLOT 232300
TAFDPA
TAF
KDPA 232330Z 2400/2424 07008KT P6SM SCT120 OVC250
     FM240300 09005KT P6SM VCSH SCT040 OVC070
     FM240800 11009KT P6SM BKN090
     FM241400 13016G24KT P6SM BKN200
     FM241600 14020G30KT P6SM SCT050 BKN150
     FM242200 16015G24KT P6SM VCSH BKN050=



000
FTUS43 KLOT 232300
TAFGYY
TAF
KGYY 232330Z 2400/2424 04011KT P6SM SCT120 OVC250
     FM240500 09005KT P6SM VCSH SCT050 OVC080
     FM240900 11008KT P6SM BKN090
     FM241400 14015G23KT P6SM BKN200
     FM241700 15020G30KT P6SM SCT050 BKN150
     FM242200 17015G24KT P6SM BKN050=



000
FTUS43 KLOT 232300
TAFRFD
TAF
KRFD 232330Z 2400/2424 10010KT P6SM VCSH SCT040 OVC070
     FM240700 11009KT P6SM BKN070
     FM241300 12015G21KT P6SM BKN200
     FM241500 15024G32KT P6SM BKN050
     FM242000 18016G24KT 5SM -SHRA SCT025 OVC040=



000
FTUS43 KLOT 232200 AAB
TAFGYY
TAF AMD
KGYY 232200Z 2322/2418 03012KT P6SM FEW150 BKN250
     FM240500 10006KT P6SM BKN070
     FM241100 13008KT P6SM BKN250
     FM241400 14013G20KT P6SM BKN200=



000
FTUS43 KLOT 232200 AAB
TAFRFD
TAF AMD
KRFD 232200Z 2322/2418 13007KT P6SM OVC100
     FM240100 13008KT P6SM VCSH BKN060 OVC090
      TEMPO 2402/2405 5SM -SHRA SCT040 BKN060
     FM240600 12012KT P6SM SCT060 BKN090
     FM241400 14015G21KT P6SM BKN250
     FM241700 16019G28KT P6SM BKN060=



000
FTUS43 KLOT 232200 AAB
TAFMDW
TAF AMD
KMDW 232200Z 2322/2418 06010KT P6SM FEW150 OVC250
     FM240400 08005KT P6SM VCSH SCT060 BKN080
     FM240800 12008KT P6SM BKN070
     FM241400 14013G20KT P6SM BKN200
     FM241700 15019G28KT P6SM SCT050 BKN150=



000
FTUS43 KLOT 232200 AAB
TAFDPA
TAF AMD
KDPA 232200Z 2322/2418 06009KT P6SM FEW150 OVC250
     FM240400 09005KT P6SM VCSH SCT060 BKN080
     FM240800 13011KT P6SM BKN080
     FM241400 14013G20KT P6SM BKN200=



000
FTUS43 KLOT 232200 AAB
TAFORD
TAF AMD
KORD 232200Z 2322/2424 06010KT P6SM FEW150 OVC250
     FM240400 09005KT P6SM VCSH SCT060 BKN080
     FM240800 12009KT P6SM BKN080
     FM241400 14013G20KT P6SM BKN200
     FM241800 15019G28KT P6SM SCT050 BKN150
     FM242100 18015G24KT 5SM -SHRA SCT025 BKN040=



000
FTUS43 KLOT 231900 AAA
TAFDPA
TAF AMD
KDPA 231958Z 2320/2418 06010KT P6SM FEW150 BKN250
     FM240400 09005KT P6SM VCSH SCT060 BKN080
     FM240800 13011KT P6SM BKN080
     FM241400 14013G20KT P6SM BKN200=



000
FTUS43 KLOT 231900 AAA
TAFORD
TAF AMD
KORD 231958Z 2320/2424 06011KT P6SM FEW150 BKN250
     FM240400 09005KT P6SM VCSH SCT060 BKN080
     FM240800 12009KT P6SM BKN080
     FM241400 14013G20KT P6SM BKN200
     FM241800 15019G28KT P6SM SCT050 BKN150
     FM242100 18015G24KT 5SM -SHRA SCT025 BKN040=



000
FTUS43 KLOT 231900 AAA
TAFMDW
TAF AMD
KMDW 231958Z 2320/2418 06011KT P6SM FEW150 BKN250
     FM240400 08005KT P6SM VCSH SCT060 BKN080
     FM240800 12008KT P6SM BKN070
     FM241400 14013G20KT P6SM BKN200
     FM241700 15019G28KT P6SM SCT050 BKN150=



000
FTUS43 KLOT 231900 AAA
TAFRFD
TAF AMD
KRFD 231958Z 2320/2418 13007KT P6SM SCT100 BKN250
     FM240100 13008KT P6SM VCSH BKN060 BKN090
      TEMPO 2402/2405 5SM -SHRA SCT040 BKN060
     FM240600 12012KT P6SM SCT060 BKN090
     FM241400 14015G21KT P6SM BKN250
     FM241700 16019G28KT P6SM BKN060=



000
FTUS43 KLOT 231900 AAA
TAFGYY
TAF AMD
KGYY 231958Z 2320/2418 04011KT P6SM FEW150 BKN250
     FM240500 10006KT P6SM BKN070
     FM241100 13008KT P6SM BKN250
     FM241400 14013G20KT P6SM BKN200=



000
FTUS43 KLOT 231700
TAFGYY
TAF
KGYY 231734Z 2318/2418 01013G19KT P6SM SCT250
     FM232100 03010KT P6SM BKN200
     FM240000 05008KT P6SM SCT060 BKN080
     FM240800 10006KT P6SM BKN070
     FM241100 13008KT P6SM BKN250
     FM241400 14013G20KT P6SM BKN200=



000
FTUS43 KLOT 231700
TAFMDW
TAF
KMDW 231734Z 2318/2418 06010KT P6SM SCT250
     FM240300 08005KT P6SM SCT060 BKN080 PROB30 2405/2409 P6SM -SHRA
     FM241000 12008KT P6SM BKN070
     FM241400 14013G20KT P6SM BKN200
     FM241700 15019G28KT P6SM SCT050 BKN150=



000
FTUS43 KLOT 231700
TAFDPA
TAF
KDPA 231734Z 2318/2418 06010KT P6SM SCT250
     FM240300 09005KT P6SM SCT060 BKN080 PROB30 2405/2409 P6SM -SHRA
     FM241000 13011KT P6SM BKN200
     FM241400 14013G20KT P6SM BKN200=



000
FTUS43 KLOT 231700
TAFRFD
TAF
KRFD 231734Z 2318/2418 13007KT P6SM BKN250
     FM240200 13008KT P6SM VCSH BKN060 BKN090
     FM240600 12012KT P6SM SCT060 BKN090
     FM241400 14015G21KT P6SM BKN250
     FM241700 16019G28KT P6SM BKN060=



000
FTUS43 KLOT 231700
TAFORD
TAF
KORD 231734Z 2318/2424 06010KT P6SM SCT250
     FM240300 09005KT P6SM SCT060 BKN080 PROB30 2405/2409 P6SM -SHRA
     FM241000 12009KT P6SM BKN080
     FM241400 14013G20KT P6SM BKN200
     FM241800 15019G28KT P6SM SCT050 BKN150
     FM242100 18015G24KT 5SM -SHRA SCT025 BKN040=



000
FTUS43 KLOT 231600 AAB
TAFRFD
TAF AMD
KRFD 231600Z 2316/2412 09009KT P6SM FEW100 BKN250
     FM232300 11007KT P6SM BKN090 OVC250
     FM240200 11009KT P6SM VCSH BKN060 OVC090 PROB30 2402/2406 P6SM
      -SHRA=



000
FTUS43 KLOT 231600 AAB
TAFORD
TAF AMD
KORD 231600Z 2316/2418 06010G15KT P6SM FEW250
     FM231900 07009KT P6SM FEW120 SCT250
     FM232300 09007KT P6SM BKN090 OVC250
     FM240400 10006KT P6SM VCSH BKN060 OVC090 PROB30 2405/2409 P6SM
      -SHRA
     FM241200 13013G21KT P6SM BKN080=



000
FTUS43 KLOT 231600 AAB
TAFDPA
TAF AMD
KDPA 231600Z 2316/2412 06010G15KT P6SM FEW250
     FM231900 07009KT P6SM FEW120 SCT250
     FM232300 09007KT P6SM BKN090 OVC250
     FM240400 10006KT P6SM VCSH BKN060 OVC090 PROB30 2405/2409 P6SM
      -SHRA=



000
FTUS43 KLOT 231600 AAB
TAFMDW
TAF AMD
KMDW 231600Z 2316/2412 06010G15KT P6SM FEW250
     FM231900 07009KT P6SM FEW120 SCT250
     FM232300 09007KT P6SM BKN090 OVC250
     FM240400 10006KT P6SM VCSH BKN060 OVC090 PROB30 2405/2409 P6SM
      -SHRA=



000
FTUS43 KLOT 231600 AAB
TAFGYY
TAF AMD
KGYY 231600Z 2316/2412 03011G16KT P6SM FEW250
     FM240000 08007KT P6SM BKN090 OVC250
     FM240400 10006KT P6SM VCSH BKN060 OVC090 PROB30 2405/2409 P6SM
      -SHRA=



000
FTUS43 KLOT 231300 AAA
TAFMDW
TAF AMD
KMDW 231359Z 2314/2412 05010G15KT P6SM FEW250
     FM232300 09007KT P6SM BKN090 OVC250
     FM240500 10006KT P6SM VCSH BKN060 OVC090 PROB30 2405/2409 P6SM
      -SHRA=



000
FTUS43 KLOT 231300 AAA
TAFDPA
TAF AMD
KDPA 231359Z 2314/2412 05010G15KT P6SM FEW250
     FM232300 09007KT P6SM BKN090 OVC250
     FM240500 10006KT P6SM VCSH BKN060 OVC090 PROB30 2405/2409 P6SM
      -SHRA=



000
FTUS43 KLOT 231300 AAA
TAFRFD
TAF AMD
KRFD 231359Z 2314/2412 08009KT P6SM SCT250
     FM231600 10009KT P6SM FEW090 SCT200
     FM232300 11007KT P6SM BKN090 OVC250
     FM240300 11009KT P6SM VCSH BKN060 OVC090 PROB30 2404/2408 P6SM
      -SHRA=



000
FTUS43 KLOT 231300 AAA
TAFORD
TAF AMD
KORD 231359Z 2314/2418 05010G15KT P6SM FEW250
     FM232300 09007KT P6SM BKN090 OVC250
     FM240500 10006KT P6SM VCSH BKN060 OVC090 PROB30 2405/2409 P6SM
      -SHRA
     FM241200 13013G21KT P6SM BKN080=



000
FTUS43 KLOT 231300 AAA
TAFGYY
TAF AMD
KGYY 231359Z 2314/2412 03011G16KT P6SM FEW250
     FM240000 08007KT P6SM BKN090 OVC250
     FM240500 10006KT P6SM VCSH BKN060 OVC090 PROB30 2405/2409 P6SM
      -SHRA=



000
FTUS43 KLOT 231100
TAFORD
TAF
KORD 231120Z 2312/2418 02007KT P6SM FEW250
     FM231400 05010G15KT P6SM SCT200
     FM232300 09007KT P6SM BKN090 OVC250
     FM240500 10006KT P6SM VCSH BKN060 OVC090 PROB30 2405/2409 P6SM
      -SHRA
     FM241200 13013G21KT P6SM BKN080=



000
FTUS43 KLOT 231100
TAFDPA
TAF
KDPA 231120Z 2312/2412 03007KT P6SM FEW250
     FM231500 06010G15KT P6SM SCT200
     FM232300 09007KT P6SM BKN090 OVC250
     FM240500 10006KT P6SM VCSH BKN060 OVC090 PROB30 2405/2409 P6SM
      -SHRA=



000
FTUS43 KLOT 231100
TAFRFD
TAF
KRFD 231120Z 2312/2412 09004KT P6SM FEW250
     FM231600 12009KT P6SM FEW090 SCT200
     FM232300 10007KT P6SM BKN090 OVC250
     FM240300 10009KT P6SM VCSH BKN060 OVC090 PROB30 2404/2408 P6SM
      -SHRA=



000
FTUS43 KLOT 231100
TAFMDW
TAF
KMDW 231120Z 2312/2412 02008KT P6SM FEW250
     FM231400 05010G15KT P6SM SCT200
     FM232300 09007KT P6SM BKN090 OVC250
     FM240500 10006KT P6SM VCSH BKN060 OVC090 PROB30 2405/2409 P6SM
      -SHRA=



000
FTUS43 KLOT 231100
TAFGYY
TAF
KGYY 231120Z 2312/2412 01011G16KT P6SM FEW250
     FM231400 03012G17KT P6SM SCT200
     FM240000 08007KT P6SM BKN090 OVC250
     FM240500 10006KT P6SM VCSH BKN060 OVC090 PROB30 2405/2409 P6SM
      -SHRA=



000
FTUS43 KLOT 230800 AAA
TAFRFD
TAF AMD
KRFD 230843Z 2309/2406 08004KT P6SM FEW250
     FM231600 12007KT P6SM FEW090 SCT200
     FM232300 09007KT P6SM VCSH BKN090 OVC250
     FM240200 10006KT P6SM VCSH BKN060 OVC090 PROB30 2404/2406 P6SM
      -SHRA=



000
FTUS43 KLOT 230800 AAA
TAFMDW
TAF AMD
KMDW 230843Z 2309/2406 02006KT P6SM SKC
     FM231600 05009KT P6SM SCT200
     FM232300 09007KT P6SM BKN090 OVC250
     FM240400 10006KT P6SM VCSH BKN060 OVC090=



000
FTUS43 KLOT 230800 AAA
TAFORD
TAF AMD
KORD 230843Z 2309/2412 02006KT P6SM SKC
     FM231600 05009KT P6SM SCT200
     FM232300 09007KT P6SM BKN090 OVC250
     FM240400 10006KT P6SM VCSH BKN060 OVC090 PROB30 2404/2408 P6SM
      -SHRA=



000
FTUS43 KLOT 230800 AAA
TAFGYY
TAF AMD
KGYY 230843Z 2309/2406 01010G15KT P6SM SKC
     FM231600 03009KT P6SM SCT200
     FM240000 08007KT P6SM BKN090 OVC250
     FM240400 09006KT P6SM VCSH BKN060 OVC090=



000
FTUS43 KLOT 230800 AAA
TAFDPA
TAF AMD
KDPA 230843Z 2309/2406 03005KT P6SM SKC
     FM231600 06007KT P6SM SCT200
     FM232300 09007KT P6SM BKN090 OVC250
     FM240400 10006KT P6SM VCSH BKN060 OVC090=



000
FTUS43 KLOT 230500
TAFORD
TAF
KORD 230525Z 2306/2412 02005KT P6SM SKC
     FM231600 05009KT P6SM SCT200
     FM232300 09007KT P6SM BKN090 OVC250
     FM240400 10006KT P6SM VCSH BKN060 OVC090 PROB30 2404/2408 P6SM
      -SHRA=



000
FTUS43 KLOT 230500
TAFMDW
TAF
KMDW 230525Z 2306/2406 02006KT P6SM SKC
     FM231600 05009KT P6SM SCT200
     FM232300 09007KT P6SM BKN090 OVC250
     FM240400 10006KT P6SM VCSH BKN060 OVC090=



000
FTUS43 KLOT 230500
TAFGYY
TAF
KGYY 230525Z 2306/2406 01005KT P6SM SKC
     FM231600 03009KT P6SM SCT200
     FM240000 08007KT P6SM BKN090 OVC250
     FM240400 09006KT P6SM VCSH BKN060 OVC090=



000
FTUS43 KLOT 230500
TAFRFD
TAF
KRFD 230525Z 2306/2406 08003KT P6SM SKC
     FM231600 12007KT P6SM FEW090 SCT200
     FM232300 09007KT P6SM VCSH BKN090 OVC250
     FM240200 10006KT P6SM VCSH BKN060 OVC090 PROB30 2404/2406 P6SM
      -SHRA=



000
FTUS43 KLOT 230500
TAFDPA
TAF
KDPA 230525Z 2306/2406 02004KT P6SM SKC
     FM231600 06007KT P6SM SCT200
     FM232300 09007KT P6SM BKN090 OVC250
     FM240400 10006KT P6SM VCSH BKN060 OVC090=



000
FTUS43 KLOT 230200 AAA
TAFDPA
TAF AMD
KDPA 230258Z 2303/2324 VRB02KT P6SM SKC
     FM231600 06007KT P6SM BKN150=



000
FTUS43 KLOT 230200 AAA
TAFGYY
TAF AMD
KGYY 230258Z 2303/2324 05008KT P6SM SCT250=



000
FTUS43 KLOT 230200 AAA
TAFORD
TAF AMD
KORD 230258Z 2303/2406 03005KT P6SM SKC
     FM231600 07009KT P6SM BKN120=



000
FTUS43 KLOT 230200 AAA
TAFMDW
TAF AMD
KMDW 230258Z 2303/2324 03005KT P6SM SKC
     FM231600 07009KT P6SM BKN150=



000
FTUS43 KLOT 230200 AAA
TAFRFD
TAF AMD
KRFD 230258Z 2303/2324 VRB01KT P6SM SKC
     FM231600 12007KT P6SM BKN150=



000
FTUS43 KLOT 222300
TAFGYY
TAF
KGYY 222320Z 2300/2324 05008KT P6SM SCT250=



000
FTUS43 KLOT 222300
TAFRFD
TAF
KRFD 222320Z 2300/2324 34012G18KT P6SM SCT250
     FM230100 VRB01KT P6SM SKC
     FM231600 12007KT P6SM BKN150=



000
FTUS43 KLOT 222300
TAFMDW
TAF
KMDW 222320Z 2300/2324 07011KT P6SM SCT250
     FM230200 03005KT P6SM SKC
     FM231600 07009KT P6SM BKN150=



000
FTUS43 KLOT 222300
TAFORD
TAF
KORD 222320Z 2300/2406 07011KT P6SM SCT250
     FM230130 03005KT P6SM SKC
     FM231600 07009KT P6SM BKN120=



000
FTUS43 KLOT 222300
TAFDPA
TAF
KDPA 222320Z 2300/2324 35012G18KT P6SM SCT250
     FM230100 VRB02KT P6SM SKC
     FM231600 06007KT P6SM BKN150=



000
FTUS43 KLOT 222200 AAB
TAFGYY
TAF AMD
KGYY 222208Z 2222/2318 05008KT P6SM SCT250=



000
FTUS43 KLOT 222200 AAB
TAFRFD
TAF AMD
KRFD 222208Z 2222/2318 34012G18KT P6SM SCT250
     FM230100 VRB03KT P6SM SKC=



000
FTUS43 KLOT 222200 AAB
TAFDPA
TAF AMD
KDPA 222208Z 2222/2318 35012G18KT P6SM SCT250
     FM230100 VRB03KT P6SM SKC=



000
FTUS43 KLOT 222200 AAB
TAFMDW
TAF AMD
KMDW 222208Z 2222/2318 07011KT P6SM SCT250
     FM230200 03005KT P6SM SKC=



000
FTUS43 KLOT 222200 AAB
TAFORD
TAF AMD
KORD 222208Z 2222/2324 07011KT P6SM SCT250
     FM230200 03005KT P6SM SKC
     FM231600 07009KT P6SM BKN150=



000
FTUS43 KLOT 221900 AAA
TAFRFD
TAF AMD
KRFD 221951Z 2220/2318 35013G20KT P6SM FEW250
     FM230200 03006KT P6SM SKC
     FM230600 08004KT P6SM FEW250
     FM231700 12006KT P6SM SCT150=



000
FTUS43 KLOT 221900 AAA
TAFDPA
TAF AMD
KDPA 221951Z 2220/2318 35013G21KT P6SM FEW250
     FM230200 04006KT P6SM SKC
     FM230600 04003KT P6SM FEW250
     FM231500 07007KT P6SM SCT150=



000
FTUS43 KLOT 221900 AAA
TAFMDW
TAF AMD
KMDW 221951Z 2220/2318 07008G15KT P6SM FEW250
     FM230200 04006KT P6SM SKC=



000
FTUS43 KLOT 221900 AAA
TAFGYY
TAF AMD
KGYY 221951Z 2220/2318 04012G20KT P6SM FEW250
     FM230200 03007KT P6SM SKC=



000
FTUS43 KLOT 221900 AAA
TAFORD
TAF AMD
KORD 221951Z 2220/2324 07010G15KT P6SM FEW250
     FM230200 04006KT P6SM SKC
     FM231600 07006KT P6SM SCT200
     FM232000 08006KT P6SM BKN150=



000
FTUS43 KLOT 221700
TAFDPA
TAF
KDPA 221738Z 2218/2318 36013G21KT P6SM FEW250
     FM230200 04006KT P6SM SKC
     FM230600 04003KT P6SM FEW250
     FM231500 07007KT P6SM SCT150=



000
FTUS43 KLOT 221700
TAFMDW
TAF
KMDW 221738Z 2218/2318 35010G18KT P6SM FEW250
     FM221830 03011G16KT P6SM FEW250
     FM230200 04006KT P6SM SKC=



000
FTUS43 KLOT 221700
TAFRFD
TAF
KRFD 221738Z 2218/2318 35013G20KT P6SM FEW250
     FM230200 03006KT P6SM SKC
     FM230600 08004KT P6SM FEW250
     FM231700 12006KT P6SM SCT150=



000
FTUS43 KLOT 221700
TAFORD
TAF
KORD 221738Z 2218/2324 34012G19KT P6SM FEW250
     FM222000 03011G16KT P6SM FEW250
     FM230200 04006KT P6SM SKC
     FM231600 07006KT P6SM SCT200
     FM232000 08006KT P6SM BKN150=



000
FTUS43 KLOT 221700
TAFGYY
TAF
KGYY 221738Z 2218/2318 04012G20KT P6SM FEW250
     FM230200 03007KT P6SM SKC=



000
FTUS43 KLOT 221500 AAB
TAFORD
TAF AMD
KORD 221553Z 2216/2318 35012G19KT P6SM FEW250
     FM222000 03011G16KT P6SM FEW250
     FM230200 04006KT P6SM SKC=



000
FTUS43 KLOT 221500 AAB
TAFGYY
TAF AMD
KGYY 221553Z 2216/2312 36013G23KT P6SM FEW250
     FM221700 04011G16KT P6SM FEW250
     FM230200 04006KT P6SM SKC=



000
FTUS43 KLOT 221500 AAB
TAFRFD
TAF AMD
KRFD 221553Z 2216/2312 34014G22KT P6SM FEW250
     FM230200 03006KT P6SM SKC=



000
FTUS43 KLOT 221500 AAB
TAFDPA
TAF AMD
KDPA 221553Z 2216/2312 35012G19KT P6SM FEW250
     FM221600 33013G21KT P6SM FEW250
     FM230200 04006KT P6SM SKC=



000
FTUS43 KLOT 221500 AAB
TAFMDW
TAF AMD
KMDW 221553Z 2216/2312 36012G19KT P6SM FEW250
     FM221800 03011G16KT P6SM FEW250
     FM230200 04006KT P6SM SKC=



000
FTUS43 KLOT 221300 AAA
TAFGYY
TAF AMD
KGYY 221357Z 2214/2312 35012G19KT P6SM FEW250
     FM221700 04011G16KT P6SM FEW250
     FM230200 04006KT P6SM SKC=



000
FTUS43 KLOT 221300 AAA
TAFORD
TAF AMD
KORD 221357Z 2214/2318 35012G19KT P6SM FEW250
     FM221900 03011G16KT P6SM FEW250
     FM230200 04006KT P6SM SKC=



000
FTUS43 KLOT 221300 AAA
TAFRFD
TAF AMD
KRFD 221357Z 2214/2312 35012G19KT P6SM FEW250
     FM221500 34014G22KT P6SM FEW250
     FM230200 03006KT P6SM SKC=



000
FTUS43 KLOT 221300 AAA
TAFDPA
TAF AMD
KDPA 221357Z 2214/2312 35012G19KT P6SM FEW250
     FM221600 33013G21KT P6SM FEW250
     FM230200 04006KT P6SM SKC=



000
FTUS43 KLOT 221300 AAA
TAFMDW
TAF AMD
KMDW 221357Z 2214/2312 35012G19KT P6SM FEW250
     FM221800 03011G16KT P6SM FEW250
     FM230200 04006KT P6SM SKC=



000
FTUS43 KLOT 221100
TAFRFD
TAF
KRFD 221128Z 2212/2312 34012G19KT P6SM FEW250
     FM221500 34014G22KT P6SM FEW250
     FM230200 03006KT P6SM SKC=



000
FTUS43 KLOT 221100
TAFGYY
TAF
KGYY 221128Z 2212/2312 35012G19KT P6SM FEW250
     FM221700 04011G16KT P6SM FEW250
     FM230200 04006KT P6SM SKC=



000
FTUS43 KLOT 221100
TAFMDW
TAF
KMDW 221128Z 2212/2312 35012G19KT P6SM FEW250
     FM221800 03011G16KT P6SM FEW250
     FM230200 04006KT P6SM SKC=



000
FTUS43 KLOT 221100
TAFORD
TAF
KORD 221128Z 2212/2318 35012G19KT P6SM FEW250
     FM221900 03011G16KT P6SM FEW250
     FM230200 04006KT P6SM SKC=



000
FTUS43 KLOT 221100
TAFDPA
TAF
KDPA 221128Z 2212/2312 35012G19KT P6SM FEW250
     FM221600 33013G21KT P6SM FEW250
     FM230200 04006KT P6SM SKC=



000
FTUS43 KLOT 220900 AAA
TAFORD
TAF AMD
KORD 220901Z 2209/2312 02012G19KT P6SM FEW080
     FM221100 35012G19KT P6SM FEW250
     FM221900 03011G16KT P6SM FEW250
     FM230200 04006KT P6SM SKC=



000
FTUS43 KLOT 220900 AAA
TAFRFD
TAF AMD
KRFD 220901Z 2209/2306 33012G19KT P6SM FEW250
     FM221500 33013G21KT P6SM FEW250
     FM230200 03006KT P6SM SKC=



000
FTUS43 KLOT 220900 AAA
TAFDPA
TAF AMD
KDPA 220901Z 2209/2306 35012G19KT P6SM FEW250
     FM221600 33013G21KT P6SM FEW250
     FM230200 04006KT P6SM SKC=



000
FTUS43 KLOT 220900 AAA
TAFGYY
TAF AMD
KGYY 220901Z 2209/2306 35012G19KT P6SM FEW090
     FM221800 04011G16KT P6SM FEW250
     FM230200 04006KT P6SM SKC=



000
FTUS43 KLOT 220900 AAA
TAFMDW
TAF AMD
KMDW 220901Z 2209/2306 02012G19KT P6SM FEW080
     FM221100 35012G19KT P6SM FEW250
     FM221900 03011G16KT P6SM FEW250
     FM230200 04006KT P6SM SKC=



000
FTUS43 KLOT 220500
TAFMDW
TAF
KMDW 220527Z 2206/2306 27009KT 5SM BR FEW009 SCT080 SCT250
     FM220700 35012G19KT P6SM FEW250
     FM221900 03011G16KT P6SM FEW250
     FM230200 04006KT P6SM SKC=



000
FTUS43 KLOT 220500
TAFDPA
TAF
KDPA 220527Z 2206/2306 27009KT 3SM BR SCT007 SCT090 SCT250
     FM220700 35012G19KT P6SM FEW250
     FM221600 33013G21KT P6SM FEW250
     FM230200 04006KT P6SM SKC=



000
FTUS43 KLOT 220500
TAFRFD
TAF
KRFD 220527Z 2206/2306 33012G19KT P6SM FEW250
     FM221500 33013G21KT P6SM FEW250
     FM230200 03006KT P6SM SKC=



000
FTUS43 KLOT 220500
TAFORD
TAF
KORD 220527Z 2206/2312 27009KT 6SM BR FEW009 SCT090 SCT250
     FM220700 35012G19KT P6SM FEW250
     FM221900 03011G16KT P6SM FEW250
     FM230200 04006KT P6SM SKC=



000
FTUS43 KLOT 220500
TAFGYY
TAF
KGYY 220527Z 2206/2306 27009KT 3SM BR SCT007 BKN070
      TEMPO 2206/2208 2SM BR BKN007
     FM220800 35012G19KT P6SM FEW090 FEW250
     FM221800 04011G16KT P6SM FEW250
     FM230200 04006KT P6SM SKC=



000
FTUS43 KLOT 220300 AAC
TAFDPA
TAF AMD
KDPA 220354Z 2204/2224 28006KT P6SM OVC045
      TEMPO 2204/2205 4SM BR BKN003
     FM220500 35012G18KT P6SM FEW070
     FM222200 01008G18KT P6SM FEW250=



000
FTUS43 KLOT 220300 AAB
TAFDPA
TAF AMD
KDPA 220351Z 2204/2224 28006KT P6SM OVC045
      TEMPO 2204/2205 4SM BR BKN005
     FM220500 35012G18KT P6SM FEW070
     FM222200 01008G18KT P6SM FEW250=



000
FTUS43 KLOT 220300 AAA
TAFORD
TAF AMD
KORD 220301Z 2203/2306 29009KT P6SM SCT050 BKN080
     FM220500 35012G21KT P6SM FEW080
     FM222200 03011G18KT P6SM FEW250
     FM230000 05006KT P6SM FEW250=



000
FTUS43 KLOT 220300 AAA
TAFRFD
TAF AMD
KRFD 220301Z 2203/2224 26007KT P6SM FEW080
     FM220400 28010G16KT P6SM FEW250
     FM220500 33012G17KT P6SM SCT200
     FM222200 01008G17KT P6SM FEW250=



000
FTUS43 KLOT 220300 AAA
TAFGYY
TAF AMD
KGYY 220301Z 2203/2224 27006KT 6SM BR OVC045
     FM220500 31008KT P6SM OVC045
     FM220700 35012G18KT P6SM FEW070
     FM222200 02008G17KT P6SM FEW250=



000
FTUS43 KLOT 220300 AAA
TAFMDW
TAF AMD
KMDW 220301Z 2203/2224 29008KT P6SM OVC045
     FM220530 35012G18KT P6SM FEW070
     FM222200 03008G17KT P6SM FEW250=



000
FTUS43 KLOT 220300 AAA
TAFDPA
TAF AMD
KDPA 220301Z 2203/2224 28006KT P6SM OVC045
     FM220500 35012G18KT P6SM FEW070
     FM222200 01008G18KT P6SM FEW250=



    US Dept of Commerce
    National Oceanic and Atmospheric Administration
    National Weather Service
    1325 East West Highway
    Silver Spring, MD 20910
    Page Author: NWS Internet Services Team
Disclaimer
Information Quality
Credits
Glossary
Privacy Policy
Freedom of Information Act (FOIA)
About Us
Career Opportunities